Time;durP1;ratioP1;P1;durP2;ratioP2;P2;SDS_P1;SDS_P2;PMS_P1;PMS_P2;Temp;Humidity;BMP_temperature;BMP_pressure;BME280_temperature;BME280_humidity;BME280_pressure;Samples;Min_cycle;Max_cycle;Signal;HPM_P1;HPM_P2
2023/05/09 00:01:42;;;;;;;13.55;7.25;;;15.60;99.90;;;;;;4991937;28;20050;-73
2023/05/09 00:04:10;;;;;;;9.80;6.85;;;15.70;99.90;;;;;;5048347;22;20062;-74
2023/05/09 00:06:39;;;;;;;12.73;7.30;;;15.70;99.90;;;;;;5004997;28;20455;-80
2023/05/09 00:09:09;;;;;;;11.48;7.03;;;15.70;99.90;;;;;;4989336;28;20045;-77
2023/05/09 00:11:36;;;;;;;11.48;7.18;;;15.60;99.90;;;;;;5027091;28;20085;-79
2023/05/09 00:14:04;;;;;;;9.45;6.35;;;15.50;99.90;;;;;;5007218;28;20104;-73
2023/05/09 00:16:31;;;;;;;9.20;6.75;;;15.40;99.90;;;;;;4993776;28;20403;-75
2023/05/09 00:19:04;;;;;;;10.60;7.45;;;15.60;99.90;;;;;;5032632;28;20073;-79
2023/05/09 00:21:34;;;;;;;10.15;7.13;;;15.60;99.90;;;;;;5011349;28;20095;-72
2023/05/09 00:24:04;;;;;;;10.90;7.40;;;15.50;99.90;;;;;;5012885;28;20053;-79
2023/05/09 00:26:32;;;;;;;11.30;6.80;;;15.40;99.90;;;;;;4989652;28;20045;-77
2023/05/09 00:29:01;;;;;;;11.88;7.72;;;15.40;99.90;;;;;;5008206;28;20050;-78
2023/05/09 00:31:35;;;;;;;;;;;15.40;99.90;;;;;;5020465;28;20077;-79
2023/05/09 00:34:45;;;;;;;14.35;7.78;;;15.60;99.90;;;;;;5030261;28;19929;-79
2023/05/09 00:37:17;;;;;;;12.40;7.93;;;15.40;99.90;;;;;;5003979;28;20046;-77
2023/05/09 00:39:58;;;;;;;11.05;7.95;;;15.50;99.90;;;;;;5005129;28;20080;-77
2023/05/09 00:42:25;;;;;;;13.20;7.93;;;15.40;99.90;;;;;;4992099;28;20057;-75
2023/05/09 00:45:05;;;;;;;11.38;7.80;;;15.50;99.90;;;;;;5007620;28;20045;-74
2023/05/09 00:47:35;;;;;;;11.55;7.57;;;15.40;99.90;;;;;;4997879;28;20042;-75
2023/05/09 00:50:08;;;;;;;10.95;7.55;;;15.40;99.90;;;;;;5012140;28;20073;-78
2023/05/09 00:52:45;;;;;;;10.60;7.13;;;15.40;99.90;;;;;;4972341;28;20074;-77
2023/05/09 00:55:14;;;;;;;12.30;8.60;;;15.50;99.90;;;;;;4989150;28;20050;-74
2023/05/09 00:57:45;;;;;;;9.88;7.45;;;15.30;99.90;;;;;;4982797;28;20054;-73
2023/05/09 01:00:13;;;;;;;12.90;8.43;;;15.40;99.90;;;;;;4986692;28;20133;-73
2023/05/09 01:02:42;;;;;;;12.32;7.63;;;15.50;99.90;;;;;;4976508;28;20048;-77
2023/05/09 01:05:18;;;;;;;10.35;7.20;;;15.50;99.90;;;;;;4974967;28;20065;-74
2023/05/09 01:07:51;;;;;;;10.65;7.57;;;15.50;99.90;;;;;;4987749;28;20058;-77
2023/05/09 01:10:42;;;;;;;11.30;7.72;;;15.50;99.90;;;;;;5006117;28;20050;-72
2023/05/09 01:13:40;;;;;;;10.95;7.25;;;15.40;99.90;;;;;;4996361;28;20050;-75
2023/05/09 01:16:22;;;;;;;11.95;7.30;;;15.40;99.90;;;;;;4991145;28;20097;-77
2023/05/09 01:19:09;;;;;;;11.60;7.43;;;15.40;99.90;;;;;;5000256;28;20042;-75
2023/05/09 01:21:40;;;;;;;12.20;7.65;;;15.30;99.90;;;;;;4999780;28;20073;-78
2023/05/09 01:24:08;;;;;;;;;;;15.40;99.90;;;;;;4986378;28;20058;-74
2023/05/09 01:27:14;;;;;;;10.55;7.82;;;15.30;99.90;;;;;;4964433;28;19922;-74
2023/05/09 01:29:46;;;;;;;12.70;7.65;;;15.30;99.90;;;;;;4969811;28;20057;-77
2023/05/09 01:32:18;;;;;;;12.13;6.97;;;15.30;99.90;;;;;;4949458;28;20073;-74
2023/05/09 01:34:48;;;;;;;13.98;8.45;;;15.20;99.90;;;;;;4970219;28;20109;-72
2023/05/09 01:37:18;;;;;;;11.65;8.00;;;15.20;99.90;;;;;;4973519;28;20098;-76
2023/05/09 01:39:52;;;;;;;13.40;7.25;;;15.30;99.90;;;;;;4982684;28;20058;-74
2023/05/09 01:42:23;;;;;;;11.35;6.93;;;15.30;99.90;;;;;;5000365;28;20116;-72
2023/05/09 01:44:52;;;;;;;10.43;7.50;;;15.30;99.90;;;;;;4983375;28;20049;-78
2023/05/09 01:47:21;;;;;;;10.90;7.60;;;15.30;99.90;;;;;;4969200;28;20050;-77
2023/05/09 01:49:51;;;;;;;10.27;7.30;;;15.40;99.90;;;;;;4986450;28;20046;-75
2023/05/09 01:52:22;;;;;;;10.13;7.65;;;15.40;99.90;;;;;;5004369;28;20138;-79
2023/05/09 01:54:52;;;;;;;10.65;7.20;;;15.30;99.90;;;;;;5001712;28;20648;-78
2023/05/09 01:57:24;;;;;;;11.38;7.30;;;15.30;99.90;;;;;;4975440;28;20078;-73
2023/05/09 01:59:53;;;;;;;9.18;7.10;;;15.40;99.90;;;;;;4999938;28;20485;-74
2023/05/09 02:02:26;;;;;;;11.80;7.10;;;15.40;99.90;;;;;;5007930;28;20084;-75
2023/05/09 02:05:11;;;;;;;9.60;6.53;;;15.50;99.90;;;;;;4993499;28;20090;-76
2023/05/09 02:07:45;;;;;;;9.07;6.38;;;15.60;99.90;;;;;;4970641;28;20050;-79
2023/05/09 02:10:15;;;;;;;8.13;5.47;;;15.50;99.90;;;;;;4969476;28;20054;-75
2023/05/09 02:12:45;;;;;;;9.53;7.27;;;15.40;99.90;;;;;;4970819;28;20054;-73
2023/05/09 02:15:20;;;;;;;10.60;6.68;;;15.40;99.90;;;;;;4988425;28;20156;-77
2023/05/09 02:17:47;;;;;;;9.85;6.35;;;15.50;99.90;;;;;;5003744;28;20415;-76
2023/05/09 02:20:15;;;;;;;8.90;6.13;;;15.40;99.90;;;;;;4972656;28;20054;-75
2023/05/09 02:22:45;;;;;;;9.18;6.38;;;15.40;99.90;;;;;;5012136;28;20411;-73
2023/05/09 02:25:27;;;;;;;9.05;6.03;;;15.40;99.90;;;;;;4990058;28;20448;-75
2023/05/09 02:28:13;;;;;;;10.70;6.45;;;15.40;99.90;;;;;;4974931;28;20082;-76
2023/05/09 02:31:05;;;;;;;9.88;6.38;;;15.50;99.90;;;;;;4991443;28;20711;-72
2023/05/09 02:33:51;;;;;;;10.02;6.90;;;15.30;99.90;;;;;;4999562;28;20054;-72
2023/05/09 02:36:26;;;;;;;9.68;6.75;;;15.30;99.90;;;;;;4991396;28;20066;-73
2023/05/09 02:39:18;;;;;;;8.20;5.82;;;15.30;99.90;;;;;;4985076;28;20416;-71
2023/05/09 02:41:48;;;;;;;8.95;5.60;;;15.30;99.90;;;;;;5020658;28;20053;-79
2023/05/09 02:44:30;;;;;;;8.95;5.93;;;15.20;99.90;;;;;;4994645;28;20104;-70
2023/05/09 02:46:59;;;;;;;9.02;6.15;;;15.20;99.90;;;;;;5009269;28;20470;-72
2023/05/09 02:49:27;;;;;;;10.10;5.70;;;15.10;99.90;;;;;;5006485;28;20050;-78
2023/05/09 02:52:00;;;;;;;11.10;7.78;;;15.10;99.90;;;;;;4990732;28;20084;-71
2023/05/09 02:54:29;;;;;;;12.00;6.53;;;15.00;99.90;;;;;;4985509;28;20061;-76
2023/05/09 02:56:56;;;;;;;8.55;6.40;;;15.10;99.90;;;;;;5022222;28;20404;-71
2023/05/09 02:59:24;;;;;;;12.57;6.72;;;15.00;99.90;;;;;;4995112;28;20254;-75
2023/05/09 03:02:05;;;;;;;8.68;5.63;;;15.10;99.90;;;;;;5018431;28;20471;-73
2023/05/09 03:04:38;;;;;;;9.98;6.90;;;15.20;99.90;;;;;;4993458;28;20046;-75
2023/05/09 03:07:32;;;;;;;8.93;5.50;;;15.10;99.90;;;;;;5004081;28;20152;-71
2023/05/09 03:09:59;;;;;;;8.63;6.30;;;15.30;99.90;;;;;;4998854;28;20054;-75
2023/05/09 03:12:33;;;;;;;9.23;6.15;;;15.10;99.90;;;;;;5006382;28;20052;-80
2023/05/09 03:15:01;;;;;;;9.73;6.68;;;15.20;99.90;;;;;;4971939;28;20061;-80
2023/05/09 03:17:29;;;;;;;9.07;6.32;;;15.10;99.90;;;;;;5003894;28;20046;-72
2023/05/09 03:19:58;;;;;;;9.70;6.75;;;15.00;99.90;;;;;;5006924;28;20063;-79
2023/05/09 03:22:30;;;;;;;8.55;6.40;;;15.10;99.90;;;;;;5006920;28;20056;-78
2023/05/09 03:25:11;;;;;;;8.60;6.38;;;14.90;99.90;;;;;;4977224;28;20088;-76
2023/05/09 03:27:39;;;;;;;10.75;6.80;;;14.90;99.90;;;;;;5020734;28;20054;-72
2023/05/09 03:30:07;;;;;;;10.68;6.78;;;14.90;99.90;;;;;;5003048;28;20118;-74
2023/05/09 03:32:38;;;;;;;8.90;6.20;;;14.90;99.90;;;;;;4970444;28;20418;-73
2023/05/09 03:35:07;;;;;;;10.50;6.72;;;14.80;99.90;;;;;;5005211;28;20439;-77
2023/05/09 03:37:34;;;;;;;11.88;7.13;;;14.80;99.90;;;;;;5003831;28;20058;-76
2023/05/09 03:40:02;;;;;;;10.77;6.38;;;14.70;99.90;;;;;;5004794;28;20050;-80
2023/05/09 03:42:43;;;;;;;9.88;6.03;;;14.80;99.90;;;;;;5002775;28;20042;-75
2023/05/09 03:45:11;;;;;;;10.50;6.93;;;14.70;99.90;;;;;;5014993;28;20283;-77
2023/05/09 03:47:38;;;;;;;10.30;7.63;;;14.90;99.90;;;;;;5028602;28;20053;-71
2023/05/09 03:50:06;;;;;;;12.85;7.35;;;14.80;99.90;;;;;;5031051;28;20046;-77
2023/05/09 03:52:33;;;;;;;10.60;7.22;;;14.70;99.90;;;;;;5013037;28;20145;-75
2023/05/09 03:55:01;;;;;;;13.38;6.82;;;14.50;99.90;;;;;;5011595;28;20054;-79
2023/05/09 03:57:28;;;;;;;9.15;6.70;;;14.50;99.90;;;;;;4994657;28;20047;-80
2023/05/09 04:00:05;;;;;;;11.13;7.65;;;14.50;99.90;;;;;;4969869;28;20070;-72
2023/05/09 04:02:36;;;;;;;11.13;7.60;;;14.60;99.90;;;;;;4983829;28;20058;-77
2023/05/09 04:05:04;;;;;;;11.73;8.00;;;14.60;99.90;;;;;;5014060;28;20381;-74
2023/05/09 04:07:34;;;;;;;11.27;7.20;;;14.50;99.90;;;;;;4973124;28;20039;-82
2023/05/09 04:10:01;;;;;;;10.60;7.18;;;14.50;99.90;;;;;;4984751;28;20487;-78
2023/05/09 04:12:34;;;;;;;9.52;6.72;;;14.50;99.90;;;;;;4982680;28;20122;-71
2023/05/09 04:15:06;;;;;;;11.13;6.90;;;14.40;99.90;;;;;;4955806;28;20109;-73
2023/05/09 04:17:33;;;;;;;10.18;7.32;;;14.40;99.90;;;;;;5008249;28;20058;-76
2023/05/09 04:20:01;;;;;;;9.57;7.03;;;14.50;99.90;;;;;;5006208;28;20054;-71
2023/05/09 04:22:31;;;;;;;12.95;7.38;;;14.50;99.90;;;;;;5008331;28;20043;-80
2023/05/09 04:24:59;;;;;;;;;;;14.50;99.90;;;;;;4976933;28;20177;-79
2023/05/09 04:27:29;;;;;;;10.38;7.07;;;14.50;99.90;;;;;;5004706;28;19932;-77
2023/05/09 04:29:59;;;;;;;9.50;6.68;;;14.40;99.90;;;;;;4972811;28;20050;-76
2023/05/09 04:32:26;;;;;;;9.85;6.68;;;14.40;99.90;;;;;;4981830;28;20050;-79
2023/05/09 04:34:54;;;;;;;9.63;7.00;;;14.50;99.90;;;;;;4981106;28;20061;-77
2023/05/09 04:37:23;;;;;;;10.52;6.95;;;14.40;99.90;;;;;;4999632;28;20052;-77
2023/05/09 04:39:51;;;;;;;11.70;7.47;;;14.50;99.90;;;;;;4979629;28;20055;-80
2023/05/09 04:42:32;;;;;;;11.07;7.93;;;14.50;99.90;;;;;;5002457;28;20053;-79
2023/05/09 04:45:27;;;;;;;12.45;7.50;;;14.40;99.90;;;;;;4990259;28;20066;-73
2023/05/09 04:48:05;;;;;;;12.98;7.20;;;14.30;99.90;;;;;;4986873;28;20093;-76
2023/05/09 04:50:35;;;;;;;12.57;7.57;;;14.30;99.90;;;;;;5000098;28;20049;-73
2023/05/09 04:53:03;;;;;;;13.27;9.27;;;14.40;99.90;;;;;;4993546;28;20133;-72
2023/05/09 04:55:34;;;;;;;;;;;14.20;99.90;;;;;;4992239;28;20118;-73
2023/05/09 04:58:04;;;;;;;11.43;8.10;;;14.40;99.90;;;;;;5015270;28;19925;-76
2023/05/09 05:01:08;;;;;;;12.55;9.02;;;14.40;99.90;;;;;;5026053;23;20048;-73
2023/05/09 05:03:45;;;;;;;12.48;8.55;;;14.50;99.90;;;;;;5011157;28;20046;-74
2023/05/09 05:06:26;;;;;;;27.63;16.98;;;14.30;99.90;;;;;;4996975;28;20058;-74
2023/05/09 05:08:55;;;;;;;17.02;11.40;;;14.60;99.90;;;;;;5005210;28;20046;-75
2023/05/09 05:11:24;;;;;;;11.82;8.68;;;14.40;99.90;;;;;;5001660;28;20101;-77
2023/05/09 05:13:52;;;;;;;11.18;7.88;;;14.50;99.90;;;;;;5019940;28;20057;-77
2023/05/09 05:16:20;;;;;;;11.27;7.68;;;14.40;99.90;;;;;;5001805;28;20419;-75
2023/05/09 05:18:50;;;;;;;12.90;7.78;;;14.30;99.90;;;;;;5021898;28;20419;-78
2023/05/09 05:21:37;;;;;;;12.32;8.30;;;14.20;99.90;;;;;;5015777;28;20065;-77
2023/05/09 05:24:15;;;;;;;13.82;7.07;;;14.20;99.90;;;;;;5011720;23;20076;-76
2023/05/09 05:26:57;;;;;;;10.25;7.55;;;14.10;99.90;;;;;;5000701;28;20049;-76
2023/05/09 05:29:34;;;;;;;16.10;7.20;;;14.20;99.90;;;;;;5022158;28;20478;-74
2023/05/09 05:32:03;;;;;;;13.55;7.55;;;14.30;99.90;;;;;;5015780;28;20053;-78
2023/05/09 05:34:30;;;;;;;12.27;7.70;;;14.40;99.90;;;;;;5030116;28;20477;-80
2023/05/09 05:37:07;;;;;;;10.35;7.25;;;14.20;99.90;;;;;;5003853;28;20054;-78
2023/05/09 05:39:35;;;;;;;11.90;7.75;;;14.20;99.90;;;;;;5039223;22;20080;-79
2023/05/09 05:42:10;;;;;;;10.30;6.90;;;14.20;99.90;;;;;;5021022;28;20461;-76
2023/05/09 05:45:05;;;;;;;12.93;8.43;;;14.10;99.90;;;;;;5018593;28;20093;-74
2023/05/09 05:48:22;;;;;;;21.48;14.95;;;14.20;99.90;;;;;;5032240;28;20030;-77
2023/05/09 05:51:03;;;;;;;10.40;8.02;;;14.30;99.90;;;;;;5042278;28;20099;-82
2023/05/09 05:53:34;;;;;;;11.00;8.02;;;14.20;99.90;;;;;;5034699;28;20049;-74
2023/05/09 05:56:16;;;;;;;10.13;7.22;;;13.90;99.90;;;;;;5007052;28;20057;-82
2023/05/09 05:59:52;;;;;;;10.65;7.35;;;13.60;99.90;;;;;;5042070;22;20096;-75
2023/05/09 06:02:49;;;;;;;11.00;7.45;;;13.60;99.90;;;;;;5048392;28;20057;-73
2023/05/09 06:05:30;;;;;;;12.27;8.15;;;13.50;99.90;;;;;;5029117;28;20077;-80
2023/05/09 06:08:00;;;;;;;10.73;8.20;;;13.40;99.90;;;;;;5078530;28;20109;-78
2023/05/09 06:11:11;;;;;;;10.93;7.65;;;13.50;99.90;;;;;;5041436;28;20405;-75
2023/05/09 06:13:57;;;;;;;11.25;7.72;;;13.40;99.90;;;;;;5031453;28;20096;-74
2023/05/09 06:17:07;;;;;;;10.35;7.00;;;13.40;99.90;;;;;;5050880;28;20048;-81
2023/05/09 06:22:59;;;;;;;10.77;8.38;;;13.50;99.90;;;;;;5063200;28;20044;-79
2023/05/09 06:25:43;;;;;;;10.82;7.80;;;13.50;99.90;;;;;;4986433;28;20046;-81
2023/05/09 06:28:37;;;;;;;11.95;7.45;;;13.40;99.90;;;;;;5024243;28;20049;-80
2023/05/09 06:31:39;;;;;;;12.70;8.10;;;13.50;99.90;;;;;;5054279;28;20048;-82
2023/05/09 06:34:28;;;;;;;11.95;8.20;;;13.30;99.90;;;;;;5051230;28;20053;-78
2023/05/09 06:37:51;;;;;;;10.40;7.85;;;13.60;99.90;;;;;;5020031;28;20084;-81
2023/05/09 06:40:44;;;;;;;11.88;8.23;;;13.60;99.90;;;;;;5028632;28;20056;-78
2023/05/09 06:43:31;;;;;;;11.43;8.45;;;13.70;99.90;;;;;;5060478;28;20105;-79
2023/05/09 06:46:09;;;;;;;12.75;8.07;;;13.80;99.90;;;;;;5043557;28;20392;-74
2023/05/09 06:48:48;;;;;;;11.60;8.35;;;13.80;99.90;;;;;;5050029;28;20049;-77
2023/05/09 06:51:54;;;;;;;10.55;7.10;;;13.80;99.90;;;;;;5040151;28;20063;-81
2023/05/09 06:54:43;;;;;;;11.77;8.75;;;13.80;99.90;;;;;;5043913;28;20123;-76
2023/05/09 06:57:41;;;;;;;11.73;7.57;;;13.90;99.90;;;;;;5046204;28;20068;-75
2023/05/09 07:00:14;;;;;;;11.10;8.15;;;14.00;99.90;;;;;;5059741;28;20044;-75
2023/05/09 07:03:03;;;;;;;12.52;7.93;;;14.00;99.90;;;;;;5026606;28;20056;-74
2023/05/09 07:08:58;;;;;;;12.15;8.57;;;14.00;99.90;;;;;;5049398;28;20063;-77
2023/05/09 07:14:47;;;;;;;11.80;8.10;;;14.20;99.90;;;;;;4810249;26;20053;-79
2023/05/09 07:17:54;;;;;;;13.55;8.18;;;14.20;99.90;;;;;;5025563;28;20046;-80
2023/05/09 07:20:28;;;;;;;14.57;8.65;;;14.30;99.90;;;;;;5029116;28;20422;-76
2023/05/09 07:23:02;;;;;;;11.77;7.60;;;14.20;99.90;;;;;;5022036;28;20053;-79
2023/05/09 07:26:20;;;;;;;12.00;7.80;;;14.10;99.90;;;;;;5017347;28;20045;-77
2023/05/09 07:29:01;;;;;;;13.40;7.93;;;14.30;99.90;;;;;;5016933;28;20054;-74
2023/05/09 07:32:15;;;;;;;12.25;7.47;;;14.40;99.90;;;;;;5006004;28;20049;-75
2023/05/09 07:35:11;;;;;;;10.60;8.10;;;14.40;99.90;;;;;;5045013;28;20414;-75
2023/05/09 07:38:28;;;;;;;13.57;8.23;;;14.60;99.90;;;;;;5049864;28;20053;-78
2023/05/09 07:41:13;;;;;;;15.38;8.65;;;14.80;99.90;;;;;;5030249;28;20046;-79
2023/05/09 07:43:57;;;;;;;10.82;8.10;;;14.70;99.90;;;;;;5032187;28;20462;-78
2023/05/09 07:46:46;;;;;;;14.50;8.85;;;14.50;99.90;;;;;;5009546;28;20046;-77
2023/05/09 07:49:54;;;;;;;12.95;8.35;;;14.70;99.90;;;;;;5018719;28;20057;-78
2023/05/09 07:52:56;;;;;;;12.20;8.52;;;14.80;99.90;;;;;;5028691;28;20054;-77
2023/05/09 07:56:42;;;;;;;12.25;8.32;;;14.70;99.90;;;;;;5013019;28;20066;-75
2023/05/09 07:59:42;;;;;;;12.18;8.70;;;15.00;99.90;;;;;;5046694;22;20050;-76
2023/05/09 08:06:07;;;;;;;15.02;8.15;;;14.90;99.90;;;;;;5022686;28;20032;-78
2023/05/09 08:08:56;;;;;;;13.93;8.55;;;14.90;99.90;;;;;;5032046;28;20087;-79
2023/05/09 08:12:05;;;;;;;11.57;7.90;;;14.80;99.90;;;;;;5203684;22;20050;-78
2023/05/09 08:15:26;;;;;;;13.55;8.18;;;14.80;99.90;;;;;;5030416;28;20458;-77
2023/05/09 08:18:28;;;;;;;13.45;8.55;;;14.80;99.90;;;;;;4902275;29;20024;-78
2023/05/09 08:21:10;;;;;;;11.80;8.48;;;15.10;99.90;;;;;;4988102;28;20052;-75
2023/05/09 08:24:00;;;;;;;12.93;8.70;;;15.20;99.90;;;;;;4992631;28;20073;-78
2023/05/09 08:26:28;;;;;;;13.60;8.45;;;15.40;99.90;;;;;;5007649;28;20046;-81
2023/05/09 08:29:59;;;;;;;12.40;8.43;;;15.40;99.90;;;;;;5021803;28;20081;-79
2023/05/09 08:33:13;;;;;;;11.65;7.82;;;15.60;99.90;;;;;;4988501;28;20034;-82
2023/05/09 08:40:45;;;;;;;12.88;8.68;;;15.60;99.90;;;;;;5007591;28;20053;-78
2023/05/09 09:05:06;;;;;;;13.30;7.88;;;15.60;99.90;;;;;;2790938;22;20048;-76
2023/05/09 09:08:58;;;;;;;12.77;7.38;;;15.80;99.90;;;;;;5027641;28;20041;-78
2023/05/09 09:11:47;;;;;;;12.40;8.93;;;15.70;99.90;;;;;;5019682;28;20264;-77
2023/05/09 09:14:42;;;;;;;14.98;8.85;;;15.90;99.90;;;;;;5021384;28;20101;-75
2023/05/09 09:17:26;;;;;;;12.30;8.15;;;16.30;99.90;;;;;;5167585;22;20142;-76
2023/05/09 09:20:01;;;;;;;11.68;7.28;;;16.50;99.90;;;;;;4986052;28;20133;-76
2023/05/09 09:23:40;;;;;;;13.27;7.55;;;16.70;99.90;;;;;;5022800;28;20042;-75
2023/05/09 09:27:21;;;;;;;;;;;;;;;;;;;;;
2023/05/09 09:30:33;;;;;;;12.93;7.53;;;17.40;99.90;;;;;;5022945;28;20049;-77
2023/05/09 09:33:56;;;;;;;15.35;8.02;;;17.70;99.90;;;;;;4999197;28;20045;-76
2023/05/09 09:36:35;;;;;;;13.00;7.82;;;17.70;99.90;;;;;;5044695;28;20184;-77
2023/05/09 09:39:10;;;;;;;12.73;8.35;;;17.70;99.90;;;;;;5154665;22;20084;-76
2023/05/09 09:42:44;;;;;;;11.07;7.55;;;18.30;99.90;;;;;;5014266;28;20077;-77
2023/05/09 09:46:16;;;;;;;10.63;6.70;;;18.30;99.90;;;;;;5007071;22;20047;-78
2023/05/09 09:49:34;;;;;;;15.25;8.07;;;18.50;99.90;;;;;;4980718;28;20051;-76
2023/05/09 09:52:56;;;;;;;11.27;7.70;;;19.00;99.90;;;;;;4960317;28;20111;-76
2023/05/09 09:55:53;;;;;;;14.68;7.68;;;19.10;99.90;;;;;;4996426;28;20297;-75
2023/05/09 09:59:48;;;;;;;;;;;;;;;;;;;;;
2023/05/09 10:17:52;;;;;;;12.15;7.03;;;17.60;99.90;;;;;;5192188;23;20097;-78
2023/05/09 10:25:38;;;;;;;10.68;6.55;;;17.60;99.90;;;;;;5052622;28;20089;-80
2023/05/09 10:28:52;;;;;;;;;;;;;;;;;;;;;
2023/05/09 10:32:05;;;;;;;11.00;6.55;;;17.90;99.90;;;;;;4994705;28;20054;-75
2023/05/09 10:35:32;;;;;;;15.00;7.30;;;18.10;99.90;;;;;;5013578;28;20108;-76
2023/05/09 10:38:34;;;;;;;15.07;6.43;;;18.20;99.90;;;;;;5005246;28;20182;-77
2023/05/09 10:41:35;;;;;;;12.73;7.10;;;18.20;99.90;;;;;;5003664;28;20081;-76
2023/05/09 10:44:23;;;;;;;10.65;6.47;;;17.80;99.90;;;;;;4980583;28;20050;-80
2023/05/09 10:47:16;;;;;;;11.07;7.72;;;18.00;99.90;;;;;;5001140;28;20117;-76
2023/05/09 10:50:21;;;;;;;14.10;7.13;;;17.90;99.90;;;;;;5020387;28;20050;-77
2023/05/09 10:53:56;;;;;;;9.77;6.63;;;18.10;99.90;;;;;;5031069;28;20060;-79
2023/05/09 11:01:20;;;;;;;15.13;8.20;;;18.40;99.90;;;;;;5019261;28;20065;-81
2023/05/09 11:08:25;;;;;;;;;;;;;;;;;;;;;
2023/05/09 11:11:25;;;;;;;10.30;7.15;;;18.00;99.90;;;;;;5028889;28;20056;-79
2023/05/09 11:14:37;;;;;;;13.05;7.78;;;17.50;99.90;;;;;;5023172;28;20064;-78
2023/05/09 11:17:23;;;;;;;10.73;7.60;;;17.70;99.90;;;;;;5045457;28;20050;-75
2023/05/09 11:20:18;;;;;;;;;;;17.70;99.90;;;;;;5031622;28;20052;-80
2023/05/09 11:27:35;;;;;;;10.88;7.30;;;18.10;99.90;;;;;;5019181;28;20065;-78
2023/05/09 11:30:43;;;;;;;11.25;7.35;;;18.00;99.90;;;;;;5019516;28;20049;-79
2023/05/09 11:33:29;;;;;;;12.90;7.75;;;17.60;99.90;;;;;;5021794;28;20057;-79
2023/05/09 11:36:24;;;;;;;10.05;7.03;;;17.30;99.90;;;;;;5080247;22;20061;-75
2023/05/09 11:39:12;;;;;;;14.70;8.00;;;17.50;99.90;;;;;;5023685;28;20208;-76
2023/05/09 11:42:27;;;;;;;13.32;7.82;;;17.70;99.90;;;;;;4988883;28;20039;-77
2023/05/09 11:48:49;;;;;;;11.50;7.28;;;17.60;99.90;;;;;;5176780;22;20068;-78
2023/05/09 11:51:39;;;;;;;12.27;7.80;;;17.70;99.90;;;;;;5019952;28;20057;-79
2023/05/09 11:54:13;;;;;;;11.93;8.23;;;17.40;99.90;;;;;;5012829;28;20419;-77
2023/05/09 11:56:58;;;;;;;10.43;7.10;;;17.40;99.90;;;;;;5014315;28;20084;-77
2023/05/09 11:59:44;;;;;;;11.35;7.38;;;17.50;99.90;;;;;;5028983;28;20585;-78
2023/05/09 12:02:44;;;;;;;11.40;7.32;;;17.50;99.90;;;;;;5018094;28;20050;-77
2023/05/09 12:05:27;;;;;;;9.93;7.18;;;17.20;99.90;;;;;;5042849;28;20056;-79
2023/05/09 12:08:50;;;;;;;10.82;7.05;;;17.40;99.90;;;;;;4993805;28;20046;-77
2023/05/09 12:11:35;;;;;;;12.60;6.78;;;17.90;99.90;;;;;;5015034;28;20507;-78
2023/05/09 12:14:52;;;;;;;10.02;7.15;;;17.90;99.90;;;;;;5019289;28;20117;-77
2023/05/09 12:21:19;;;;;;;11.57;8.00;;;17.30;99.90;;;;;;5004264;28;20074;-79
2023/05/09 12:24:11;;;;;;;13.48;7.50;;;17.20;99.90;;;;;;5002391;28;20038;-78
2023/05/09 12:41:44;;;;;;;11.20;7.72;;;17.40;99.90;;;;;;5031107;26;20045;-78
2023/05/09 12:45:44;;;;;;;11.70;7.75;;;17.40;99.90;;;;;;5022098;28;20146;-80
2023/05/09 12:54:03;;;;;;;13.15;7.15;;;18.10;99.90;;;;;;4915209;29;20159;-78
2023/05/09 12:56:52;;;;;;;10.57;7.85;;;18.40;99.90;;;;;;4912044;29;20056;-78
2023/05/09 13:00:14;;;;;;;12.65;8.32;;;18.60;99.90;;;;;;4913850;29;20047;-79
2023/05/09 13:07:51;;;;;;;10.93;7.22;;;18.50;99.90;;;;;;4939622;29;20103;-76
2023/05/09 13:23:31;;;;;;;11.15;8.23;;;17.60;99.90;;;;;;4946527;28;20102;-77
2023/05/09 13:26:41;;;;;;;18.52;8.40;;;17.00;99.90;;;;;;4933964;29;20083;-76
2023/05/09 13:29:31;;;;;;;11.77;7.18;;;17.10;99.90;;;;;;5227954;22;20102;-79
2023/05/09 13:36:39;;;;;;;11.18;7.32;;;17.90;99.90;;;;;;5124246;22;20053;-78
2023/05/09 13:39:23;;;;;;;14.57;8.07;;;18.00;99.90;;;;;;5035595;28;20049;-77
2023/05/09 13:42:19;;;;;;;11.15;7.30;;;18.00;99.90;;;;;;5048621;28;20048;-76
2023/05/09 13:45:42;;;;;;;12.07;7.55;;;17.90;99.90;;;;;;5038052;28;20080;-77
2023/05/09 13:49:30;;;;;;;11.60;7.53;;;17.80;99.90;;;;;;5047717;28;20084;-77
2023/05/09 13:52:32;;;;;;;10.93;7.45;;;17.50;99.90;;;;;;5012450;28;20050;-77
2023/05/09 14:03:51;;;;;;;11.75;7.38;;;17.60;99.90;;;;;;4991854;28;20081;-77
2023/05/09 14:06:47;;;;;;;10.10;7.05;;;17.60;99.90;;;;;;5008669;28;20051;-76
2023/05/09 14:16:28;;;;;;;9.52;6.68;;;17.00;99.90;;;;;;5325902;23;20053;-77
2023/05/09 14:19:29;;;;;;;10.23;7.37;;;17.10;99.90;;;;;;5001886;28;20247;-77
2023/05/09 14:22:12;;;;;;;9.98;7.18;;;16.90;99.90;;;;;;5034773;28;20395;-77
2023/05/09 14:25:22;;;;;;;;;;;;;;;;;;;;;
2023/05/09 14:28:14;;;;;;;10.63;7.85;;;16.50;99.90;;;;;;5047754;28;20041;-77
2023/05/09 14:31:18;;;;;;;13.40;8.77;;;16.40;99.90;;;;;;5050717;28;20037;-79
2023/05/09 14:34:31;;;;;;;12.07;8.40;;;16.50;99.90;;;;;;5038443;28;20519;-77
2023/05/09 14:37:12;;;;;;;10.93;8.20;;;16.90;99.90;;;;;;5021643;28;20055;-77
2023/05/09 14:39:45;;;;;;;12.35;8.45;;;17.10;99.90;;;;;;5027279;28;20077;-77
2023/05/09 14:42:54;;;;;;;;;;;;;;;;;;;;;
2023/05/09 14:46:37;;;;;;;10.32;7.82;;;17.30;99.90;;;;;;5040842;28;20206;-78
2023/05/09 14:50:02;;;;;;;16.83;9.20;;;17.30;99.90;;;;;;5024657;28;20460;-76
2023/05/09 14:53:40;;;;;;;;;;;17.20;99.90;;;;;;5034420;28;20072;-77
2023/05/09 14:56:12;;;;;;;16.52;8.77;;;17.20;99.90;;;;;;4990114;28;20402;-77
2023/05/09 14:59:02;;;;;;;14.70;8.45;;;17.10;99.90;;;;;;5045609;28;20045;-77
2023/05/09 15:02:11;;;;;;;12.05;8.95;;;17.20;99.90;;;;;;4964676;28;20062;-78
2023/05/09 15:05:14;;;;;;;16.17;9.90;;;17.20;99.90;;;;;;4981945;28;20102;-78
2023/05/09 15:07:57;;;;;;;14.45;10.23;;;17.00;99.90;;;;;;5006599;28;20047;-78
2023/05/09 15:10:40;;;;;;;14.60;10.18;;;16.80;99.90;;;;;;5003382;28;20074;-77
2023/05/09 15:13:34;;;;;;;15.60;10.20;;;16.60;99.90;;;;;;4996012;28;20058;-77
2023/05/09 15:17:27;;;;;;;14.38;10.02;;;16.50;99.90;;;;;;5010133;28;20054;-76
2023/05/09 15:20:50;;;;;;;15.73;10.70;;;16.30;99.90;;;;;;4984407;28;20100;-77
2023/05/09 15:23:21;;;;;;;48.05;30.05;;;16.40;99.90;;;;;;4988037;28;20055;-76
2023/05/09 15:27:05;;;;;;;24.95;15.20;;;16.30;99.90;;;;;;5004133;28;20045;-78
2023/05/09 15:30:04;;;;;;;16.92;11.05;;;16.20;99.90;;;;;;5057365;28;20076;-78
2023/05/09 15:33:25;;;;;;;16.20;10.40;;;15.90;99.90;;;;;;5014430;28;20045;-76
2023/05/09 15:36:53;;;;;;;16.15;10.50;;;15.80;99.90;;;;;;5019421;28;20049;-77
2023/05/09 15:39:47;;;;;;;16.02;10.35;;;16.00;99.90;;;;;;5024334;28;20033;-76
2023/05/09 15:42:37;;;;;;;16.42;11.05;;;15.90;99.90;;;;;;5035899;28;20433;-74
2023/05/09 15:45:28;;;;;;;19.83;12.65;;;16.00;99.90;;;;;;5042091;28;20084;-74
2023/05/09 15:48:59;;;;;;;16.65;11.45;;;15.90;99.90;;;;;;5045273;28;20087;-76
2023/05/09 15:52:28;;;;;;;15.95;10.75;;;15.80;99.90;;;;;;5028308;28;20056;-74
2023/05/09 15:55:32;;;;;;;;;;;15.70;99.90;;;;;;5065719;23;20073;-77
2023/05/09 15:58:36;;;;;;;15.85;11.07;;;15.70;99.90;;;;;;5012896;28;19941;-77
2023/05/09 16:01:24;;;;;;;16.17;10.93;;;15.70;99.90;;;;;;5007111;28;20059;-77
2023/05/09 16:03:53;;;;;;;16.85;9.48;;;15.60;99.90;;;;;;5029746;28;20077;-74
2023/05/09 16:06:28;;;;;;;11.98;8.35;;;15.60;99.90;;;;;;4985775;28;20045;-80
2023/05/09 16:09:14;;;;;;;10.35;7.95;;;15.50;99.90;;;;;;5017848;28;20034;-74
2023/05/09 16:12:15;;;;;;;13.98;8.05;;;15.60;99.90;;;;;;4992358;28;20050;-79
2023/05/09 16:15:24;;;;;;;11.48;7.93;;;15.60;99.90;;;;;;5002464;28;20049;-78
2023/05/09 16:18:09;;;;;;;12.73;8.35;;;15.50;99.90;;;;;;5016228;28;20050;-75
2023/05/09 16:20:46;;;;;;;;;;;15.50;99.90;;;;;;4981054;28;20058;-78
2023/05/09 16:23:27;;;;;;;14.68;9.10;;;15.50;99.90;;;;;;5014986;28;20363;-76
2023/05/09 16:26:22;;;;;;;12.18;8.20;;;15.50;99.90;;;;;;5011773;28;20060;-79
2023/05/09 16:29:02;;;;;;;12.02;8.50;;;15.60;99.90;;;;;;4986399;28;20091;-75
2023/05/09 16:32:18;;;;;;;12.00;8.10;;;15.50;99.90;;;;;;4944995;28;20086;-74
2023/05/09 16:34:57;;;;;;;13.68;7.55;;;15.40;99.90;;;;;;4968303;28;20065;-74
2023/05/09 16:37:30;;;;;;;11.00;7.07;;;15.40;99.90;;;;;;4982483;28;20479;-75
2023/05/09 16:40:25;;;;;;;9.20;6.80;;;15.40;99.90;;;;;;5014634;23;20057;-76
2023/05/09 16:43:27;;;;;;;10.10;6.05;;;15.40;99.90;;;;;;4951586;29;20058;-78
2023/05/09 16:46:42;;;;;;;9.25;6.18;;;15.30;99.90;;;;;;4967995;29;20055;-73
2023/05/09 16:49:38;;;;;;;8.05;6.00;;;15.30;99.90;;;;;;4967038;29;20053;-74
2023/05/09 16:52:25;;;;;;;7.43;5.28;;;15.30;99.90;;;;;;4942885;29;20047;-73
2023/05/09 16:55:17;;;;;;;10.77;5.30;;;15.20;99.90;;;;;;4937150;29;20083;-74